Time;durP1;ratioP1;P1;durP2;ratioP2;P2;SDS_P1;SDS_P2;PMS_P1;PMS_P2;Temp;Humidity;BMP_temperature;BMP_pressure;BME280_temperature;BME280_humidity;BME280_pressure;Samples;Min_cycle;Max_cycle;Signal;HPM_P1;HPM_P2
2022/12/19 00:01:04;;;;;;;200.90;92.03;;;;;;;-8.41;100.00;101411.41;5033972;28;20029;-78
2022/12/19 00:03:30;;;;;;;201.30;90.40;;;;;;;-8.42;100.00;101402.09;5034205;28;20453;-78
2022/12/19 00:05:55;;;;;;;217.05;94.00;;;;;;;-8.43;100.00;101400.34;5033917;28;20083;-78
2022/12/19 00:08:21;;;;;;;205.18;91.90;;;;;;;-8.45;100.00;101394.34;5034121;28;20025;-78
2022/12/19 00:10:55;;;;;;;212.40;97.97;;;;;;;-8.49;100.00;101390.75;5032836;28;20021;-78
2022/12/19 00:13:20;;;;;;;222.30;101.80;;;;;;;-8.42;100.00;101404.63;5034135;28;20080;-78
2022/12/19 00:15:46;;;;;;;216.85;100.82;;;;;;;-8.47;100.00;101399.28;5033815;28;20056;-78
2022/12/19 00:18:11;;;;;;;234.45;103.15;;;;;;;-8.54;100.00;101377.00;5033785;28;20017;-78
2022/12/19 00:20:36;;;;;;;224.38;103.93;;;;;;;-8.48;100.00;101384.91;5033892;28;20025;-78
2022/12/19 00:23:01;;;;;;;228.23;104.70;;;;;;;-8.54;100.00;101377.00;5034048;28;20026;-78
2022/12/19 00:25:27;;;;;;;235.15;109.50;;;;;;;-8.47;100.00;101384.13;5033913;28;20108;-78
2022/12/19 00:27:52;;;;;;;243.23;111.95;;;;;;;-8.45;100.00;101387.63;5033520;28;20028;-78
2022/12/19 00:30:17;;;;;;;246.77;111.05;;;;;;;-8.56;100.00;101376.88;5033743;28;20063;-78
2022/12/19 00:32:43;;;;;;;233.98;105.35;;;;;;;-8.50;100.00;101381.44;5033418;28;20017;-78
2022/12/19 00:35:08;;;;;;;235.50;108.93;;;;;;;-8.50;100.00;101380.59;5033658;28;20033;-79
2022/12/19 00:37:34;;;;;;;248.95;111.57;;;;;;;-8.54;100.00;101369.41;5033502;28;20144;-78
2022/12/19 00:39:59;;;;;;;259.25;118.53;;;;;;;-8.52;100.00;101367.84;5033407;28;20449;-78
2022/12/19 00:42:24;;;;;;;254.98;115.13;;;;;;;-8.49;100.00;101368.03;5033313;28;20025;-78
2022/12/19 00:44:49;;;;;;;228.63;105.10;;;;;;;-8.59;100.00;101364.09;5033364;28;20025;-78
2022/12/19 00:47:15;;;;;;;239.57;110.80;;;;;;;-8.50;100.00;101381.44;5032143;28;20111;-78
2022/12/19 00:49:40;;;;;;;230.60;106.05;;;;;;;-8.58;100.00;101370.03;5033509;28;20025;-78
2022/12/19 00:52:05;;;;;;;248.68;113.30;;;;;;;-8.52;100.00;101372.03;5033456;28;20112;-78
2022/12/19 00:54:30;;;;;;;251.15;116.85;;;;;;;-8.45;100.00;101387.63;5033404;28;20500;-78
2022/12/19 00:56:56;;;;;;;250.27;114.75;;;;;;;-8.50;100.00;101380.59;5033044;28;20034;-78
2022/12/19 00:59:21;;;;;;;238.73;109.28;;;;;;;-8.46;100.00;101390.94;5033133;28;20025;-78
2022/12/19 01:01:46;;;;;;;250.45;114.95;;;;;;;-8.49;100.00;101375.59;5032863;28;20021;-78
2022/12/19 01:04:13;;;;;;;244.60;111.82;;;;;;;-8.49;100.00;101368.03;5032976;28;20025;-78
2022/12/19 01:06:39;;;;;;;257.60;117.65;;;;;;;-8.47;100.00;101371.50;5033025;28;20029;-78
2022/12/19 01:09:06;;;;;;;240.95;110.28;;;;;;;-8.58;100.00;101358.25;5032971;28;20025;-78
2022/12/19 01:14:15;;;;;;;236.95;111.40;;;;;;;-8.51;100.00;101353.53;5032830;28;20048;-78
2022/12/19 01:16:41;;;;;;;241.90;109.70;;;;;;;-8.50;100.00;101338.50;5032662;28;20017;-78
2022/12/19 01:19:09;;;;;;;239.13;108.97;;;;;;;-8.57;100.00;101331.34;5032866;28;20022;-78
2022/12/19 01:21:36;;;;;;;241.23;110.72;;;;;;;-8.53;100.00;101335.78;5032944;28;20029;-78
2022/12/19 01:24:02;;;;;;;218.50;101.85;;;;;;;-8.55;100.00;101333.19;5032414;28;20028;-78
2022/12/19 01:26:28;;;;;;;227.63;108.15;;;;;;;-8.53;100.00;101328.22;5032706;28;20032;-78
2022/12/19 01:28:53;;;;;;;218.05;103.22;;;;;;;-8.46;100.00;101335.38;5032346;28;20021;-78
2022/12/19 01:31:19;;;;;;;230.73;103.93;;;;;;;-8.55;100.00;101314.63;5032829;28;20384;-78
2022/12/19 01:33:44;;;;;;;221.35;100.32;;;;;;;-8.45;100.00;101321.06;5032350;28;20032;-78
2022/12/19 01:36:09;;;;;;;223.70;101.78;;;;;;;-8.47;100.00;101317.56;5032181;28;20072;-78
2022/12/19 01:38:35;;;;;;;240.23;106.28;;;;;;;-8.40;100.00;101328.13;5032311;28;20025;-78
2022/12/19 01:41:01;;;;;;;233.30;100.95;;;;;;;-8.42;100.00;101314.53;5032286;28;20029;-78
2022/12/19 01:43:51;;;;;;;219.77;101.80;;;;;;;-8.47;100.00;101283.06;5032178;28;20453;-78
2022/12/19 01:46:19;;;;;;;214.50;99.05;;;;;;;-8.44;100.00;101274.78;5032158;28;20029;-78
2022/12/19 01:48:45;;;;;;;219.48;101.50;;;;;;;-8.46;100.00;101267.16;5032459;28;20025;-78
2022/12/19 01:51:17;;;;;;;216.10;95.65;;;;;;;-8.50;100.00;101252.59;5032391;28;20476;-78
2022/12/19 01:53:47;;;;;;;211.00;96.35;;;;;;;-8.40;100.00;101280.09;5032307;28;20032;-78
2022/12/19 01:56:13;;;;;;;;;;;;;;;-8.34;100.00;101265.25;5032670;28;20029;-78
2022/12/19 01:58:42;;;;;;;213.30;95.95;;;;;;;-8.42;100.00;101245.44;5032300;28;19916;-78
2022/12/19 02:01:08;;;;;;;203.07;95.78;;;;;;;-8.32;100.00;101257.75;5032287;28;20026;-78
2022/12/19 02:03:36;;;;;;;203.15;90.93;;;;;;;-8.38;100.00;101230.53;5032234;28;20021;-78
2022/12/19 02:06:04;;;;;;;207.38;90.07;;;;;;;-8.31;100.00;101239.28;5032020;28;20030;-78
2022/12/19 02:08:30;;;;;;;198.10;89.45;;;;;;;-8.25;100.00;101249.72;5032142;28;20060;-78
2022/12/19 02:10:55;;;;;;;189.20;89.47;;;;;;;-8.31;100.00;101241.81;5032006;28;20021;-78
2022/12/19 02:13:22;;;;;;;200.18;87.80;;;;;;;-8.29;100.00;101235.19;5031975;28;20033;-78
2022/12/19 02:16:09;;;;;;;193.45;88.28;;;;;;;-8.17;100.00;101240.91;5031591;28;20028;-78
2022/12/19 02:18:58;;;;;;;190.45;85.57;;;;;;;-8.11;100.00;101258.91;5031839;28;20025;-78
2022/12/19 02:21:55;;;;;;;180.43;84.10;;;;;;;-8.00;100.00;101240.94;5032043;28;20026;-78
2022/12/19 02:24:35;;;;;;;182.25;84.38;;;;;;;-8.01;100.00;101236.66;5031796;28;20461;-78
2022/12/19 02:27:04;;;;;;;185.00;82.22;;;;;;;-7.96;100.00;101228.53;5031641;28;20432;-78
2022/12/19 02:29:54;;;;;;;182.47;82.03;;;;;;;-7.93;100.00;101225.28;5031809;28;20145;-78
2022/12/19 02:32:31;;;;;;;187.15;87.20;;;;;;;-7.99;100.00;101220.78;5031968;28;20067;-79
2022/12/19 02:35:22;;;;;;;199.95;91.95;;;;;;;-7.99;100.00;101227.50;5033612;28;20066;-78
2022/12/19 02:38:02;;;;;;;204.43;95.65;;;;;;;-8.14;100.00;101190.50;5035352;28;20045;-78
2022/12/19 02:40:33;;;;;;;178.02;85.45;;;;;;;-8.10;100.00;101211.75;5035716;28;20013;-78
2022/12/19 02:43:01;;;;;;;197.80;89.88;;;;;;;-8.10;100.00;101206.69;5035463;28;20116;-78
2022/12/19 02:45:33;;;;;;;194.20;90.53;;;;;;;-8.22;100.00;101200.97;5035734;28;20076;-78
2022/12/19 02:48:00;;;;;;;196.45;93.80;;;;;;;-8.17;100.00;101184.44;5035238;28;20025;-78
2022/12/19 02:50:25;;;;;;;190.50;88.50;;;;;;;-8.21;100.00;101168.22;5035855;28;20060;-78
2022/12/19 02:52:50;;;;;;;197.45;91.07;;;;;;;-8.19;100.00;101178.41;5035472;28;20022;-78
2022/12/19 02:55:20;;;;;;;199.93;94.38;;;;;;;-8.18;100.00;101173.44;5035622;28;20021;-78
2022/12/19 02:57:48;;;;;;;198.50;92.75;;;;;;;-8.11;100.00;101187.28;5035054;28;20579;-78
2022/12/19 03:00:19;;;;;;;181.85;86.78;;;;;;;-8.20;100.00;101159.84;5035294;28;20457;-78
2022/12/19 03:03:03;;;;;;;202.70;89.05;;;;;;;-8.08;100.00;101173.13;5035051;28;20028;-78
2022/12/19 03:05:46;;;;;;;183.30;84.30;;;;;;;-8.05;100.00;101167.34;5035385;28;20346;-78
2022/12/19 03:08:39;;;;;;;183.73;85.10;;;;;;;-8.06;100.00;101174.06;5035466;28;20029;-78
2022/12/19 03:11:12;;;;;;;195.13;88.20;;;;;;;-8.11;100.00;101170.44;5035095;28;20037;-78
2022/12/19 03:13:43;;;;;;;185.48;85.60;;;;;;;-8.07;100.00;101172.34;5035405;28;20026;-78
2022/12/19 03:16:10;;;;;;;189.90;86.80;;;;;;;-8.12;100.00;101160.25;5035056;28;20108;-78
2022/12/19 03:18:35;;;;;;;176.32;83.97;;;;;;;-8.11;100.00;101150.22;5035211;28;20017;-78
2022/12/19 03:21:22;;;;;;;181.23;85.45;;;;;;;-8.21;100.00;101132.84;5034809;28;20033;-78
2022/12/19 03:23:51;;;;;;;188.85;89.18;;;;;;;-8.14;100.00;101152.56;5034943;28;20075;-78
2022/12/19 03:26:20;;;;;;;187.40;85.90;;;;;;;-8.14;100.00;101154.25;5034748;28;20029;-78
2022/12/19 03:29:08;;;;;;;195.82;88.10;;;;;;;-8.08;100.00;101142.81;5034932;28;20025;-78
2022/12/19 03:31:35;;;;;;;181.07;85.47;;;;;;;-8.10;100.00;101129.19;5034931;28;20092;-78
2022/12/19 03:34:16;;;;;;;190.48;87.65;;;;;;;-8.08;100.00;101141.94;5034554;28;20021;-78
2022/12/19 03:36:54;;;;;;;183.93;85.43;;;;;;;-8.09;100.00;101127.53;5034787;28;20218;-78
2022/12/19 03:39:22;;;;;;;178.45;84.50;;;;;;;-7.98;100.00;101151.72;5034651;28;20117;-78
2022/12/19 03:44:37;;;;;;;192.45;83.90;;;;;;;-7.98;100.00;101123.91;5034828;28;20175;-78
2022/12/19 03:47:12;;;;;;;199.15;88.15;;;;;;;-8.02;100.00;101119.50;5034358;28;20162;-78
2022/12/19 03:49:37;;;;;;;186.65;85.00;;;;;;;-8.08;100.00;101112.47;5034858;28;20017;-78
2022/12/19 03:52:12;;;;;;;175.23;83.32;;;;;;;-8.09;100.00;101112.38;5034208;28;20028;-78
2022/12/19 03:54:41;;;;;;;185.20;82.35;;;;;;;-8.02;100.00;101129.59;5034732;28;20491;-78
2022/12/19 03:57:18;;;;;;;186.32;87.10;;;;;;;-7.99;100.00;101126.38;5034100;28;20421;-78
2022/12/19 04:00:01;;;;;;;186.63;82.95;;;;;;;-8.08;100.00;101109.06;5034399;28;20032;-78
2022/12/19 04:02:28;;;;;;;176.15;85.50;;;;;;;-8.04;100.00;101113.50;5033035;28;20022;-78
2022/12/19 04:05:02;;;;;;;181.93;84.05;;;;;;;-8.07;100.00;101106.63;5033955;28;20025;-78
2022/12/19 04:07:27;;;;;;;181.18;81.07;;;;;;;-8.04;100.00;101108.44;5034101;28;20103;-78
2022/12/19 04:09:57;;;;;;;183.70;81.93;;;;;;;-8.15;100.00;101074.16;5034101;28;20049;-78
2022/12/19 04:12:30;;;;;;;175.07;81.27;;;;;;;-7.99;100.00;101103.63;5034263;28;20017;-78
2022/12/19 04:14:56;;;;;;;187.65;82.97;;;;;;;-7.97;100.00;101102.03;5033896;28;20272;-78
2022/12/19 04:17:33;;;;;;;176.63;79.85;;;;;;;-7.96;100.00;101108.81;5033871;28;20092;-78
2022/12/19 04:20:09;;;;;;;176.00;78.97;;;;;;;-7.96;100.00;101109.72;5033906;28;20026;-78
2022/12/19 04:22:42;;;;;;;168.23;79.28;;;;;;;-7.88;100.00;101117.66;5034008;28;20026;-78
2022/12/19 04:25:18;;;;;;;182.38;88.88;;;;;;;-7.84;100.00;101111.97;5033788;28;20075;-78
2022/12/19 04:27:52;;;;;;;197.65;85.75;;;;;;;-7.82;100.00;101115.47;5034146;28;20480;-78
2022/12/19 04:30:18;;;;;;;171.77;82.30;;;;;;;-7.94;100.00;101108.09;5033907;28;20056;-78
2022/12/19 04:32:45;;;;;;;175.95;80.93;;;;;;;-7.99;100.00;101088.44;5033909;28;20018;-78
2022/12/19 04:35:11;;;;;;;165.57;75.75;;;;;;;-7.92;100.00;101119.19;5033621;28;20032;-78
2022/12/19 04:37:37;;;;;;;161.48;76.38;;;;;;;-7.83;100.00;101103.63;5033415;28;20124;-78
2022/12/19 04:40:04;;;;;;;172.05;84.18;;;;;;;-7.88;100.00;101097.41;5033233;28;20109;-78
2022/12/19 04:42:29;;;;;;;178.00;83.15;;;;;;;-7.86;100.00;101096.72;5033454;28;20053;-78
2022/12/19 04:44:54;;;;;;;164.10;75.95;;;;;;;-7.83;100.00;101091.81;5033220;28;20083;-78
2022/12/19 04:47:20;;;;;;;166.90;78.45;;;;;;;-7.85;100.00;101067.25;5033805;28;20048;-78
2022/12/19 04:49:45;;;;;;;159.75;72.47;;;;;;;-7.73;100.00;101074.56;5032213;28;20111;-78
2022/12/19 04:52:10;;;;;;;162.18;76.97;;;;;;;-7.76;100.00;101051.66;5033272;28;20511;-78
2022/12/19 04:54:36;;;;;;;162.57;73.68;;;;;;;-7.71;100.00;101062.84;5033362;28;20040;-78
2022/12/19 04:57:01;;;;;;;150.18;69.25;;;;;;;-7.68;100.00;101038.59;5032414;28;20025;-79
2022/12/19 04:59:26;;;;;;;150.77;67.38;;;;;;;-7.62;100.00;101060.81;5033067;28;20388;-78
2022/12/19 05:01:51;;;;;;;148.10;67.60;;;;;;;-7.57;100.00;101047.56;5034577;28;20172;-78
2022/12/19 05:04:17;;;;;;;133.63;64.90;;;;;;;-7.51;100.00;101036.88;5053134;28;20032;-78
2022/12/19 05:06:42;;;;;;;133.30;62.17;;;;;;;-7.44;100.00;101060.81;5053331;28;20476;-78
2022/12/19 05:09:09;;;;;;;135.32;64.53;;;;;;;-7.34;100.00;101065.53;5051488;28;20112;-78
2022/12/19 05:11:35;;;;;;;131.85;64.60;;;;;;;-7.29;100.00;101061.53;5052853;28;20025;-78
2022/12/19 05:14:00;;;;;;;137.18;62.45;;;;;;;-7.24;100.00;101065.19;5052492;28;20032;-78
2022/12/19 05:16:25;;;;;;;138.73;62.40;;;;;;;-7.22;100.00;101068.63;5052715;28;20016;-78
2022/12/19 05:18:52;;;;;;;141.77;65.65;;;;;;;-7.21;100.00;101069.50;5052835;28;20025;-78
2022/12/19 05:21:17;;;;;;;122.63;60.30;;;;;;;-7.22;100.00;101073.69;5052556;28;20417;-79
2022/12/19 05:23:42;;;;;;;132.70;62.35;;;;;;;-7.13;100.00;101064.00;5052655;28;20021;-78
2022/12/19 05:26:10;;;;;;;127.93;62.72;;;;;;;-7.12;100.00;101042.97;5052334;28;20021;-78
2022/12/19 05:28:36;;;;;;;128.57;59.33;;;;;;;-7.11;100.00;101038.78;5052740;28;20537;-78
2022/12/19 05:31:13;;;;;;;118.15;57.78;;;;;;;-6.96;100.00;101056.34;5052489;28;20100;-78
2022/12/19 05:33:39;;;;;;;115.07;56.90;;;;;;;-6.92;100.00;101048.09;5052930;28;20017;-79
2022/12/19 05:36:07;;;;;;;112.93;53.58;;;;;;;-6.87;100.00;101054.22;5050961;28;20392;-78
2022/12/19 05:38:32;;;;;;;117.68;53.40;;;;;;;-6.87;100.00;101059.28;5052463;28;20017;-78
2022/12/19 05:40:58;;;;;;;125.53;57.15;;;;;;;-6.87;100.00;101050.06;5052081;28;20032;-79
2022/12/19 05:43:23;;;;;;;127.13;63.13;;;;;;;-6.97;100.00;101036.88;5052408;28;20021;-79
2022/12/19 05:45:49;;;;;;;115.85;55.97;;;;;;;-6.95;100.00;101038.69;5052246;28;20376;-79
2022/12/19 05:48:14;;;;;;;696.88;301.02;;;;;;;-6.95;100.00;101033.63;5052071;28;20465;-79
2022/12/19 05:50:40;;;;;;;127.82;57.55;;;;;;;-6.92;100.00;101032.88;5052176;28;20337;-79
2022/12/19 05:53:05;;;;;;;119.47;55.88;;;;;;;-6.93;100.00;101032.03;5051907;28;20028;-79
2022/12/19 05:55:31;;;;;;;107.97;51.17;;;;;;;-6.94;100.00;101025.22;5050797;28;20028;-79
2022/12/19 05:57:56;;;;;;;109.00;52.10;;;;;;;-6.95;100.00;101007.41;5051777;28;20021;-79
2022/12/19 06:00:22;;;;;;;111.47;50.92;;;;;;;-6.88;100.00;101014.50;5052119;28;20561;-79
2022/12/19 06:02:47;;;;;;;122.25;56.38;;;;;;;-6.85;100.00;101014.66;5052141;28;20021;-79
2022/12/19 06:05:13;;;;;;;111.93;51.08;;;;;;;-6.82;100.00;101023.25;5051833;28;20033;-79
2022/12/19 06:07:38;;;;;;;106.90;51.03;;;;;;;-6.82;100.00;101022.41;5051949;28;20104;-79
2022/12/19 06:10:05;;;;;;;100.72;50.42;;;;;;;-6.64;100.00;101030.81;5050716;28;20024;-79
2022/12/19 06:12:30;;;;;;;107.78;50.35;;;;;;;-6.54;100.00;101037.13;5051704;28;20025;-79
2022/12/19 06:14:55;;;;;;;96.95;45.45;;;;;;;-6.58;100.00;101032.72;5052010;28;20029;-79
2022/12/19 06:17:21;;;;;;;98.47;48.60;;;;;;;-6.52;100.00;101040.63;5051903;28;20028;-79
2022/12/19 06:19:46;;;;;;;101.97;46.88;;;;;;;-6.41;100.00;101053.75;5050461;28;20536;-79
2022/12/19 06:22:12;;;;;;;106.75;52.53;;;;;;;-6.39;100.00;101050.50;5050104;28;20036;-78
2022/12/19 06:24:37;;;;;;;105.70;48.42;;;;;;;-6.45;100.00;101050.22;5051532;28;20092;-78
2022/12/19 06:27:02;;;;;;;108.30;49.25;;;;;;;-6.45;100.00;101045.16;5048961;28;20112;-79
2022/12/19 06:29:27;;;;;;;96.18;47.42;;;;;;;-6.40;100.00;101050.44;5037486;28;20026;-79
2022/12/19 06:31:53;;;;;;;97.60;46.78;;;;;;;-6.43;100.00;101042.69;5038653;28;20021;-79
2022/12/19 06:34:18;;;;;;;97.82;46.65;;;;;;;-6.35;100.00;101059.13;5031642;28;20017;-78
2022/12/19 06:36:44;;;;;;;94.80;46.42;;;;;;;-6.43;100.00;101046.09;5031814;28;20046;-79
2022/12/19 06:39:13;;;;;;;94.40;47.20;;;;;;;-6.39;100.00;101045.44;5031768;28;20021;-78
2022/12/19 06:44:22;;;;;;;105.15;51.38;;;;;;;-6.37;100.00;101048.88;5031465;28;20460;-78
2022/12/19 06:46:47;;;;;;;99.78;45.97;;;;;;;-6.39;100.00;101029.34;5031602;28;20041;-78
2022/12/19 06:49:12;;;;;;;91.63;45.85;;;;;;;-6.30;100.00;101038.22;5031563;28;20088;-78
2022/12/19 06:51:38;;;;;;;93.05;45.58;;;;;;;-6.31;100.00;101023.81;5031820;28;20028;-78
2022/12/19 06:54:03;;;;;;;91.47;45.53;;;;;;;-6.29;100.00;101024.75;5031240;28;20022;-78
2022/12/19 06:56:36;;;;;;;92.70;45.33;;;;;;;-6.26;100.00;101021.47;5031563;28;20041;-78
2022/12/19 06:59:01;;;;;;;89.00;43.85;;;;;;;-6.19;100.00;101026.03;5031401;28;20159;-78
2022/12/19 07:01:45;;;;;;;92.75;45.08;;;;;;;-6.03;100.00;101035.13;5031331;28;20029;-78
2022/12/19 07:04:14;;;;;;;93.53;44.78;;;;;;;-6.06;100.00;101032.47;5031280;28;20078;-78
2022/12/19 07:06:40;;;;;;;87.05;44.28;;;;;;;-6.15;100.00;101020.28;5031441;28;20029;-78
2022/12/19 07:09:06;;;;;;;95.63;47.05;;;;;;;-6.10;100.00;101028.09;5031298;28;20026;-78
2022/12/19 07:11:31;;;;;;;100.78;43.65;;;;;;;-6.09;100.00;101034.88;5031663;28;20409;-78
2022/12/19 07:13:56;;;;;;;92.07;45.00;;;;;;;-6.06;100.00;101032.47;5030280;28;20028;-78
2022/12/19 07:16:23;;;;;;;102.43;45.75;;;;;;;-6.09;100.00;101020.53;5031228;28;20064;-78
2022/12/19 07:18:49;;;;;;;94.82;43.65;;;;;;;-6.15;100.00;101009.25;5031796;28;20033;-79
2022/12/19 07:21:14;;;;;;;89.70;41.78;;;;;;;-6.09;100.00;101006.97;5033141;28;20028;-79
2022/12/19 07:23:40;;;;;;;86.25;44.13;;;;;;;-6.04;100.00;101000.44;5034897;28;20025;-78
2022/12/19 07:26:05;;;;;;;97.65;42.53;;;;;;;-6.07;100.00;101008.78;5036553;28;20072;-79
2022/12/19 07:28:32;;;;;;;90.95;45.28;;;;;;;-6.06;100.00;101002.03;5035899;28;20472;-79
2022/12/19 07:30:58;;;;;;;91.93;43.17;;;;;;;-6.00;100.00;100999.75;5034910;28;20454;-79
2022/12/19 07:33:23;;;;;;;91.28;44.45;;;;;;;-5.99;100.00;100998.94;5034411;28;20033;-79
2022/12/19 07:35:48;;;;;;;96.07;46.42;;;;;;;-5.92;100.00;100992.47;5034951;28;20107;-79
2022/12/19 07:38:14;;;;;;;85.72;41.00;;;;;;;-5.75;100.00;100999.06;5034907;28;20025;-79
2022/12/19 07:40:39;;;;;;;93.00;43.08;;;;;;;-5.54;100.00;101012.63;5034683;28;20033;-79
2022/12/19 07:43:05;;;;;;;88.72;41.22;;;;;;;-5.52;99.92;100983.09;5034438;28;20017;-79
2022/12/19 07:45:31;;;;;;;76.75;39.67;;;;;;;-5.38;99.45;100978.53;5034698;28;20424;-79
2022/12/19 07:48:00;;;;;;;86.18;42.15;;;;;;;-5.12;98.94;101009.16;5034538;28;20022;-79
2022/12/19 07:50:26;;;;;;;85.35;41.00;;;;;;;-4.99;98.78;100991.03;5034252;28;20026;-79
2022/12/19 07:52:51;;;;;;;82.30;39.70;;;;;;;-4.98;98.08;100966.47;5034676;28;20143;-79
2022/12/19 07:55:17;;;;;;;95.03;45.75;;;;;;;-4.78;97.35;100996.03;5034611;28;20029;-79
2022/12/19 07:57:42;;;;;;;78.10;37.92;;;;;;;-4.79;96.51;101004.47;5033079;28;20104;-79
2022/12/19 08:00:08;;;;;;;83.70;39.58;;;;;;;-4.68;96.62;101013.34;5032631;28;20025;-79
2022/12/19 08:02:33;;;;;;;82.28;40.00;;;;;;;-4.70;96.72;100988.72;5034191;28;20024;-79
2022/12/19 08:04:58;;;;;;;85.10;39.78;;;;;;;-4.66;96.44;100983.78;5034418;28;20052;-79
2022/12/19 08:07:24;;;;;;;81.70;40.60;;;;;;;-4.63;95.75;100993.22;5034119;28;20475;-78
2022/12/19 08:09:49;;;;;;;80.82;40.38;;;;;;;-4.61;95.79;100971.25;5034251;28;20025;-78
2022/12/19 08:12:15;;;;;;;75.05;39.10;;;;;;;-4.58;95.48;100976.44;5034013;28;20532;-78
2022/12/19 08:14:41;;;;;;;81.88;41.28;;;;;;;-4.52;95.40;100981.72;5034140;28;20084;-78
2022/12/19 08:17:06;;;;;;;79.38;40.20;;;;;;;-4.44;94.91;100990.50;5032591;28;20030;-78
2022/12/19 08:19:32;;;;;;;82.97;40.95;;;;;;;-4.53;95.10;100954.56;5033903;28;20116;-78
2022/12/19 08:21:57;;;;;;;86.43;40.78;;;;;;;-4.38;94.89;100979.66;5034196;28;20358;-78
2022/12/19 08:24:22;;;;;;;88.55;41.97;;;;;;;-4.31;95.00;100982.47;5033729;28;20075;-78
2022/12/19 08:26:47;;;;;;;99.38;49.47;;;;;;;-4.28;95.16;100962.25;5033943;28;20017;-78
2022/12/19 08:29:13;;;;;;;113.57;52.92;;;;;;;-4.23;94.56;100953.91;5033630;28;20021;-78
2022/12/19 08:31:39;;;;;;;111.70;49.05;;;;;;;-4.10;94.41;100969.63;5032975;28;20025;-78
2022/12/19 08:34:04;;;;;;;103.97;45.92;;;;;;;-4.08;94.50;100955.28;5033500;28;20074;-78
2022/12/19 08:36:30;;;;;;;83.45;40.60;;;;;;;-4.12;94.72;100944.97;5046229;28;20045;-78
2022/12/19 08:38:55;;;;;;;71.45;36.35;;;;;;;-4.06;94.55;100955.34;5053464;28;20022;-78
2022/12/19 08:41:21;;;;;;;74.80;41.22;;;;;;;-4.08;94.70;100962.94;5053208;28;20032;-78
2022/12/19 08:43:51;;;;;;;78.53;37.20;;;;;;;-4.21;95.17;100952.25;5053357;28;20025;-78
2022/12/19 08:46:17;;;;;;;95.85;44.40;;;;;;;-4.25;95.46;100940.28;5052883;28;20480;-78
2022/12/19 08:48:44;;;;;;;70.78;36.15;;;;;;;-4.27;95.61;100937.66;5052059;28;20036;-78
2022/12/19 08:51:10;;;;;;;69.97;35.78;;;;;;;-4.17;95.90;100951.56;5053223;28;20028;-78
2022/12/19 08:53:38;;;;;;;72.53;36.42;;;;;;;-4.24;95.90;100947.97;5053269;28;20048;-78
2022/12/19 08:56:16;;;;;;;65.97;34.58;;;;;;;-4.16;95.94;100951.63;5053227;28;20029;-78
2022/12/19 08:58:42;;;;;;;70.05;35.25;;;;;;;-4.08;96.05;100951.88;5053125;28;20036;-78
2022/12/19 09:01:12;;;;;;;74.50;36.08;;;;;;;-4.02;95.77;100939.34;5052863;28;20021;-78
2022/12/19 09:03:38;;;;;;;68.80;35.70;;;;;;;-3.94;95.75;100937.94;5053246;28;20028;-77
2022/12/19 09:06:05;;;;;;;66.38;34.88;;;;;;;-3.95;96.05;100927.72;5053154;28;20037;-77
2022/12/19 09:08:32;;;;;;;77.25;37.47;;;;;;;-3.90;95.66;100932.13;5052863;28;20021;-77
2022/12/19 09:11:04;;;;;;;63.50;33.92;;;;;;;-3.83;96.29;100941.69;5052999;28;20017;-77
2022/12/19 09:13:30;;;;;;;66.68;34.28;;;;;;;-3.76;96.00;100927.47;5052868;28;20498;-77
2022/12/19 09:16:00;;;;;;;69.07;35.60;;;;;;;-3.67;95.79;100929.44;5053074;28;20591;-78
2022/12/19 09:18:26;;;;;;;63.25;34.28;;;;;;;-3.55;95.83;100929.81;5052691;28;20094;-77
2022/12/19 09:20:54;;;;;;;66.25;34.00;;;;;;;-3.47;95.12;100935.16;5052875;28;20025;-77
2022/12/19 09:23:20;;;;;;;61.30;32.00;;;;;;;-3.25;94.95;100950.25;5052396;28;20025;-77
2022/12/19 09:25:45;;;;;;;65.15;33.03;;;;;;;-3.20;94.89;100936.00;5052401;28;20029;-77
2022/12/19 09:28:10;;;;;;;70.90;35.88;;;;;;;-3.04;94.54;100938.16;5052315;28;20486;-77
2022/12/19 09:30:36;;;;;;;62.78;33.80;;;;;;;-2.84;94.28;100938.72;5052559;28;20040;-77
2022/12/19 09:33:01;;;;;;;63.28;34.55;;;;;;;-2.76;93.80;100936.41;5052507;28;20032;-77
2022/12/19 09:35:27;;;;;;;62.88;32.22;;;;;;;-2.77;93.83;100925.34;5052572;28;20025;-79
2022/12/19 09:37:52;;;;;;;66.55;32.03;;;;;;;-2.64;94.03;100929.09;5052351;28;20073;-79
2022/12/19 09:40:17;;;;;;;63.50;31.95;;;;;;;-2.63;93.86;100912.09;5052101;28;20028;-79
2022/12/19 09:43:04;;;;;;;59.90;31.40;;;;;;;-2.49;93.26;100910.75;5051980;28;20025;-79
2022/12/19 09:46:19;;;;;;;63.63;31.85;;;;;;;-2.41;92.66;100901.63;5052263;28;20060;-79
2022/12/19 09:48:46;;;;;;;58.10;30.25;;;;;;;-2.47;93.19;100870.88;5013406;28;20029;-79
2022/12/19 09:51:44;;;;;;;59.42;29.83;;;;;;;-2.39;92.71;100892.34;5029493;28;20053;-79
2022/12/19 09:54:17;;;;;;;57.80;30.30;;;;;;;-2.41;92.81;100895.66;4951900;29;20043;-80
2022/12/19 09:56:43;;;;;;;55.80;30.15;;;;;;;-2.41;92.38;100882.91;4951536;29;20406;-79
2022/12/19 09:59:23;;;;;;;63.28;30.48;;;;;;;-2.51;92.25;100869.06;4947357;29;20438;-80
2022/12/19 10:01:56;;;;;;;45.60;22.50;;;;;;;-2.42;92.49;100873.53;4951884;29;20501;-79
2022/12/19 10:04:25;;;;;;;51.47;27.83;;;;;;;-2.39;92.84;100868.53;4951438;29;20042;-80
2022/12/19 10:06:51;;;;;;;59.45;30.02;;;;;;;-2.46;92.91;100851.31;4951962;29;20387;-80
2022/12/19 10:09:20;;;;;;;59.40;29.70;;;;;;;-2.44;92.17;100859.84;4951463;29;20046;-79
2022/12/19 10:12:00;;;;;;;70.68;30.83;;;;;;;-2.40;92.55;100866.75;4951546;29;20189;-80
2022/12/19 10:14:49;;;;;;;65.22;30.35;;;;;;;-2.34;92.32;100864.38;4951322;29;20031;-79
2022/12/19 10:17:26;;;;;;;58.47;29.90;;;;;;;-2.36;92.38;100856.72;4951453;29;20043;-79
2022/12/19 10:19:51;;;;;;;58.78;29.77;;;;;;;-2.40;92.36;100856.56;4951538;29;20031;-79
2022/12/19 10:22:26;;;;;;;51.05;28.15;;;;;;;-2.45;92.88;100850.47;4967098;28;20148;-79
2022/12/19 10:25:00;;;;;;;59.65;32.20;;;;;;;-2.40;92.26;100849.81;4990111;28;20073;-79
2022/12/19 10:27:44;;;;;;;62.45;33.30;;;;;;;-2.40;92.51;100847.25;4989998;28;20467;-79
2022/12/19 10:30:19;;;;;;;66.75;31.55;;;;;;;-2.39;92.88;100851.50;5003257;28;20033;-79
2022/12/19 10:33:28;;;;;;;55.17;30.52;;;;;;;-2.39;93.10;100845.56;5051802;28;20032;-80
2022/12/19 10:35:57;;;;;;;57.10;31.60;;;;;;;-2.42;92.79;100835.25;5029146;28;20057;-79
2022/12/19 10:38:40;;;;;;;53.25;28.98;;;;;;;-2.35;92.99;100834.59;5012496;28;20394;-79
2022/12/19 10:41:14;;;;;;;56.22;27.42;;;;;;;-2.35;92.87;100819.28;5029253;28;20029;-79
2022/12/19 10:43:45;;;;;;;57.70;28.95;;;;;;;-2.30;93.48;100831.31;5012596;28;20511;-80
2022/12/19 10:46:44;;;;;;;53.75;27.42;;;;;;;-2.22;93.46;100823.84;5029123;28;20477;-79
2022/12/19 10:49:15;;;;;;;54.65;27.40;;;;;;;-2.11;93.58;100807.09;4950901;29;20102;-79
2022/12/19 10:51:41;;;;;;;;;;;;;;;-1.95;92.99;100818.53;4949907;29;20099;-80
2022/12/19 10:54:08;;;;;;;48.65;25.88;;;;;;;-1.97;93.06;100804.88;4951603;28;19907;-80
2022/12/19 10:56:34;;;;;;;48.97;25.77;;;;;;;-1.87;92.44;100808.50;4954561;29;20074;-80
2022/12/19 10:59:00;;;;;;;76.88;36.13;;;;;;;-1.72;91.21;100811.38;4955561;29;20146;-80
2022/12/19 11:01:38;;;;;;;153.43;60.88;;;;;;;-1.73;91.92;100794.31;4955215;29;20026;-80
2022/12/19 11:04:09;;;;;;;84.78;42.50;;;;;;;-1.70;91.37;100802.06;4955398;29;20395;-80
2022/12/19 11:06:50;;;;;;;59.60;33.25;;;;;;;-1.69;91.74;100797.81;4954881;29;20047;-80
2022/12/19 11:09:26;;;;;;;56.80;32.30;;;;;;;-1.83;92.22;100777.09;4960118;28;20043;-80
2022/12/19 11:12:11;;;;;;;46.25;25.70;;;;;;;-1.77;92.30;100778.09;4974226;28;20085;-80
2022/12/19 11:14:42;;;;;;;49.85;25.02;;;;;;;-1.69;92.96;100785.03;4974257;28;20062;-80
2022/12/19 11:17:25;;;;;;;48.42;26.17;;;;;;;-1.51;92.52;100772.66;4958201;28;20023;-80